sensor_id;sensor_type;location;lat;lon;timestamp;P1;durP1;ratioP1;P2;durP2;ratioP2
12385;SDS011;6257;57.634;18.310;2023-08-24T00:02:14;5.90;;;2.30;;
12385;SDS011;6257;57.634;18.310;2023-08-24T00:04:42;5.47;;;2.20;;
12385;SDS011;6257;57.634;18.310;2023-08-24T00:07:09;4.40;;;2.30;;
12385;SDS011;6257;57.634;18.310;2023-08-24T00:09:36;6.37;;;2.33;;
12385;SDS011;6257;57.634;18.310;2023-08-24T00:12:05;3.37;;;2.03;;
12385;SDS011;6257;57.634;18.310;2023-08-24T00:14:32;5.00;;;2.60;;
12385;SDS011;6257;57.634;18.310;2023-08-24T00:17:00;3.43;;;2.73;;
12385;SDS011;6257;57.634;18.310;2023-08-24T00:19:27;2.77;;;2.20;;
12385;SDS011;6257;57.634;18.310;2023-08-24T00:21:54;4.33;;;2.47;;
12385;SDS011;6257;57.634;18.310;2023-08-24T00:24:21;4.70;;;2.77;;
12385;SDS011;6257;57.634;18.310;2023-08-24T00:26:48;4.83;;;2.97;;
12385;SDS011;6257;57.634;18.310;2023-08-24T00:29:16;6.37;;;2.93;;
12385;SDS011;6257;57.634;18.310;2023-08-24T00:31:44;5.60;;;2.73;;
12385;SDS011;6257;57.634;18.310;2023-08-24T00:34:11;5.37;;;2.80;;
12385;SDS011;6257;57.634;18.310;2023-08-24T00:36:38;5.90;;;2.97;;
12385;SDS011;6257;57.634;18.310;2023-08-24T00:39:05;4.63;;;2.70;;
12385;SDS011;6257;57.634;18.310;2023-08-24T00:41:32;5.03;;;2.70;;
12385;SDS011;6257;57.634;18.310;2023-08-24T00:43:59;2.67;;;2.47;;
12385;SDS011;6257;57.634;18.310;2023-08-24T00:46:28;5.07;;;2.67;;
12385;SDS011;6257;57.634;18.310;2023-08-24T00:48:56;5.13;;;2.70;;
12385;SDS011;6257;57.634;18.310;2023-08-24T00:51:23;4.13;;;3.07;;
12385;SDS011;6257;57.634;18.310;2023-08-24T00:53:50;5.30;;;3.33;;
12385;SDS011;6257;57.634;18.310;2023-08-24T00:56:18;6.83;;;3.30;;
12385;SDS011;6257;57.634;18.310;2023-08-24T00:58:49;4.90;;;3.30;;
12385;SDS011;6257;57.634;18.310;2023-08-24T01:01:17;3.23;;;2.97;;
12385;SDS011;6257;57.634;18.310;2023-08-24T01:03:46;4.83;;;2.90;;
12385;SDS011;6257;57.634;18.310;2023-08-24T01:06:13;5.37;;;2.97;;
12385;SDS011;6257;57.634;18.310;2023-08-24T01:08:39;4.80;;;2.93;;
12385;SDS011;6257;57.634;18.310;2023-08-24T01:11:08;3.70;;;3.00;;
12385;SDS011;6257;57.634;18.310;2023-08-24T01:13:43;4.57;;;2.90;;
12385;SDS011;6257;57.634;18.310;2023-08-24T01:16:17;3.80;;;2.87;;
12385;SDS011;6257;57.634;18.310;2023-08-24T01:18:48;5.77;;;2.73;;
12385;SDS011;6257;57.634;18.310;2023-08-24T01:21:16;3.50;;;3.13;;
12385;SDS011;6257;57.634;18.310;2023-08-24T01:23:45;4.27;;;3.00;;
12385;SDS011;6257;57.634;18.310;2023-08-24T01:26:21;3.90;;;2.90;;
12385;SDS011;6257;57.634;18.310;2023-08-24T01:28:48;3.87;;;2.10;;
12385;SDS011;6257;57.634;18.310;2023-08-24T01:31:16;4.13;;;2.53;;
12385;SDS011;6257;57.634;18.310;2023-08-24T01:33:44;3.83;;;2.73;;
12385;SDS011;6257;57.634;18.310;2023-08-24T01:36:12;3.60;;;2.43;;
12385;SDS011;6257;57.634;18.310;2023-08-24T01:38:41;3.33;;;2.30;;
12385;SDS011;6257;57.634;18.310;2023-08-24T01:41:10;5.70;;;2.40;;
12385;SDS011;6257;57.634;18.310;2023-08-24T01:43:43;4.33;;;2.53;;
12385;SDS011;6257;57.634;18.310;2023-08-24T01:46:13;5.93;;;2.17;;
12385;SDS011;6257;57.634;18.310;2023-08-24T01:48:43;2.80;;;2.47;;
12385;SDS011;6257;57.634;18.310;2023-08-24T01:51:11;4.53;;;2.30;;
12385;SDS011;6257;57.634;18.310;2023-08-24T01:53:39;4.40;;;2.20;;
12385;SDS011;6257;57.634;18.310;2023-08-24T01:56:10;4.43;;;2.33;;
12385;SDS011;6257;57.634;18.310;2023-08-24T01:58:37;4.27;;;2.33;;
12385;SDS011;6257;57.634;18.310;2023-08-24T02:01:06;5.13;;;2.50;;
12385;SDS011;6257;57.634;18.310;2023-08-24T02:03:34;3.63;;;2.67;;
12385;SDS011;6257;57.634;18.310;2023-08-24T02:06:01;3.40;;;2.30;;
12385;SDS011;6257;57.634;18.310;2023-08-24T02:08:30;3.53;;;2.50;;
12385;SDS011;6257;57.634;18.310;2023-08-24T02:10:56;2.80;;;2.60;;
12385;SDS011;6257;57.634;18.310;2023-08-24T02:13:23;3.33;;;2.80;;
12385;SDS011;6257;57.634;18.310;2023-08-24T02:15:50;3.13;;;2.83;;
12385;SDS011;6257;57.634;18.310;2023-08-24T02:18:18;5.03;;;2.80;;
12385;SDS011;6257;57.634;18.310;2023-08-24T02:20:45;5.60;;;2.93;;
12385;SDS011;6257;57.634;18.310;2023-08-24T02:23:12;3.70;;;2.50;;
12385;SDS011;6257;57.634;18.310;2023-08-24T02:25:41;3.93;;;2.87;;
12385;SDS011;6257;57.634;18.310;2023-08-24T02:28:09;5.37;;;2.87;;
12385;SDS011;6257;57.634;18.310;2023-08-24T02:30:37;4.07;;;2.93;;
12385;SDS011;6257;57.634;18.310;2023-08-24T02:33:04;3.27;;;2.80;;
12385;SDS011;6257;57.634;18.310;2023-08-24T02:35:33;5.73;;;3.00;;
12385;SDS011;6257;57.634;18.310;2023-08-24T02:38:00;3.80;;;2.77;;
12385;SDS011;6257;57.634;18.310;2023-08-24T02:40:27;3.17;;;2.80;;
12385;SDS011;6257;57.634;18.310;2023-08-24T02:42:54;3.77;;;2.70;;
12385;SDS011;6257;57.634;18.310;2023-08-24T02:45:22;6.03;;;3.20;;
12385;SDS011;6257;57.634;18.310;2023-08-24T02:47:50;5.20;;;3.07;;
12385;SDS011;6257;57.634;18.310;2023-08-24T02:50:17;3.63;;;3.20;;
12385;SDS011;6257;57.634;18.310;2023-08-24T02:52:45;4.40;;;2.87;;
12385;SDS011;6257;57.634;18.310;2023-08-24T02:55:12;4.37;;;2.70;;
12385;SDS011;6257;57.634;18.310;2023-08-24T02:57:40;4.70;;;3.20;;
12385;SDS011;6257;57.634;18.310;2023-08-24T03:00:07;3.70;;;3.07;;
12385;SDS011;6257;57.634;18.310;2023-08-24T03:02:38;3.70;;;3.10;;
12385;SDS011;6257;57.634;18.310;2023-08-24T03:05:06;5.83;;;3.33;;
12385;SDS011;6257;57.634;18.310;2023-08-24T03:07:34;4.90;;;3.20;;
12385;SDS011;6257;57.634;18.310;2023-08-24T03:10:03;6.10;;;3.10;;
12385;SDS011;6257;57.634;18.310;2023-08-24T03:12:30;4.30;;;3.20;;
12385;SDS011;6257;57.634;18.310;2023-08-24T03:14:57;5.07;;;3.10;;
12385;SDS011;6257;57.634;18.310;2023-08-24T03:17:24;5.30;;;3.07;;
12385;SDS011;6257;57.634;18.310;2023-08-24T03:19:51;4.67;;;3.13;;
12385;SDS011;6257;57.634;18.310;2023-08-24T03:22:19;4.30;;;2.97;;
12385;SDS011;6257;57.634;18.310;2023-08-24T03:24:46;5.87;;;3.20;;
12385;SDS011;6257;57.634;18.310;2023-08-24T03:27:14;6.63;;;3.30;;
12385;SDS011;6257;57.634;18.310;2023-08-24T03:29:41;5.17;;;3.60;;
12385;SDS011;6257;57.634;18.310;2023-08-24T03:32:09;6.37;;;3.63;;
12385;SDS011;6257;57.634;18.310;2023-08-24T03:34:36;6.13;;;3.47;;
12385;SDS011;6257;57.634;18.310;2023-08-24T03:37:03;4.63;;;3.70;;
12385;SDS011;6257;57.634;18.310;2023-08-24T03:39:30;5.57;;;3.50;;
12385;SDS011;6257;57.634;18.310;2023-08-24T03:41:57;4.77;;;3.30;;
12385;SDS011;6257;57.634;18.310;2023-08-24T03:44:27;5.53;;;3.27;;
12385;SDS011;6257;57.634;18.310;2023-08-24T03:46:55;4.43;;;3.20;;
12385;SDS011;6257;57.634;18.310;2023-08-24T03:49:22;5.90;;;3.77;;
12385;SDS011;6257;57.634;18.310;2023-08-24T03:51:49;5.80;;;3.77;;
12385;SDS011;6257;57.634;18.310;2023-08-24T03:54:17;8.80;;;4.20;;
12385;SDS011;6257;57.634;18.310;2023-08-24T03:56:44;7.17;;;4.17;;
12385;SDS011;6257;57.634;18.310;2023-08-24T03:59:11;7.10;;;4.07;;
12385;SDS011;6257;57.634;18.310;2023-08-24T04:01:39;7.87;;;4.40;;
12385;SDS011;6257;57.634;18.310;2023-08-24T04:04:07;6.63;;;4.47;;
12385;SDS011;6257;57.634;18.310;2023-08-24T04:06:35;8.67;;;4.23;;
12385;SDS011;6257;57.634;18.310;2023-08-24T04:09:02;5.33;;;4.60;;
12385;SDS011;6257;57.634;18.310;2023-08-24T04:11:30;7.77;;;4.77;;
12385;SDS011;6257;57.634;18.310;2023-08-24T04:13:57;5.23;;;4.37;;
12385;SDS011;6257;57.634;18.310;2023-08-24T04:16:24;5.83;;;4.43;;
12385;SDS011;6257;57.634;18.310;2023-08-24T04:18:52;6.10;;;4.87;;
12385;SDS011;6257;57.634;18.310;2023-08-24T04:21:20;4.93;;;4.50;;
12385;SDS011;6257;57.634;18.310;2023-08-24T04:23:47;5.93;;;4.30;;
12385;SDS011;6257;57.634;18.310;2023-08-24T04:26:14;7.93;;;4.53;;
12385;SDS011;6257;57.634;18.310;2023-08-24T04:28:41;4.67;;;4.23;;
12385;SDS011;6257;57.634;18.310;2023-08-24T04:31:08;5.43;;;4.33;;
12385;SDS011;6257;57.634;18.310;2023-08-24T04:33:35;4.90;;;4.40;;
12385;SDS011;6257;57.634;18.310;2023-08-24T04:36:04;9.67;;;4.60;;
12385;SDS011;6257;57.634;18.310;2023-08-24T04:38:31;8.70;;;4.73;;
12385;SDS011;6257;57.634;18.310;2023-08-24T04:40:58;7.23;;;4.20;;
12385;SDS011;6257;57.634;18.310;2023-08-24T04:43:25;6.97;;;4.60;;
12385;SDS011;6257;57.634;18.310;2023-08-24T04:45:53;6.53;;;4.27;;
12385;SDS011;6257;57.634;18.310;2023-08-24T04:48:22;8.40;;;4.00;;
12385;SDS011;6257;57.634;18.310;2023-08-24T04:50:50;3.93;;;3.63;;
12385;SDS011;6257;57.634;18.310;2023-08-24T04:53:19;8.97;;;4.27;;
12385;SDS011;6257;57.634;18.310;2023-08-24T04:55:47;4.90;;;3.57;;
12385;SDS011;6257;57.634;18.310;2023-08-24T04:58:14;6.67;;;4.00;;
12385;SDS011;6257;57.634;18.310;2023-08-24T05:00:41;4.70;;;3.67;;
12385;SDS011;6257;57.634;18.310;2023-08-24T05:03:08;7.00;;;3.53;;
12385;SDS011;6257;57.634;18.310;2023-08-24T05:05:36;6.57;;;3.87;;
12385;SDS011;6257;57.634;18.310;2023-08-24T05:08:04;6.93;;;4.07;;
12385;SDS011;6257;57.634;18.310;2023-08-24T05:10:36;4.73;;;3.90;;
12385;SDS011;6257;57.634;18.310;2023-08-24T05:13:03;6.60;;;3.70;;
12385;SDS011;6257;57.634;18.310;2023-08-24T05:15:30;5.33;;;4.10;;
12385;SDS011;6257;57.634;18.310;2023-08-24T05:17:58;5.57;;;3.73;;
12385;SDS011;6257;57.634;18.310;2023-08-24T05:20:25;6.10;;;4.00;;
12385;SDS011;6257;57.634;18.310;2023-08-24T05:22:52;7.20;;;4.10;;
12385;SDS011;6257;57.634;18.310;2023-08-24T05:25:20;6.83;;;4.00;;
12385;SDS011;6257;57.634;18.310;2023-08-24T05:27:49;4.00;;;3.60;;
12385;SDS011;6257;57.634;18.310;2023-08-24T05:30:17;5.50;;;4.27;;
12385;SDS011;6257;57.634;18.310;2023-08-24T05:32:44;4.57;;;3.80;;
12385;SDS011;6257;57.634;18.310;2023-08-24T05:35:11;5.47;;;3.27;;
12385;SDS011;6257;57.634;18.310;2023-08-24T05:37:38;5.23;;;3.17;;
12385;SDS011;6257;57.634;18.310;2023-08-24T05:40:05;6.47;;;3.50;;
12385;SDS011;6257;57.634;18.310;2023-08-24T05:42:33;7.23;;;3.00;;
12385;SDS011;6257;57.634;18.310;2023-08-24T05:45:03;6.40;;;3.33;;
12385;SDS011;6257;57.634;18.310;2023-08-24T05:47:31;6.27;;;3.70;;
12385;SDS011;6257;57.634;18.310;2023-08-24T05:49:58;6.47;;;3.70;;
12385;SDS011;6257;57.634;18.310;2023-08-24T05:52:25;5.97;;;3.33;;
12385;SDS011;6257;57.634;18.310;2023-08-24T05:54:52;3.97;;;3.50;;
12385;SDS011;6257;57.634;18.310;2023-08-24T05:57:19;7.77;;;3.90;;
12385;SDS011;6257;57.634;18.310;2023-08-24T05:59:47;4.03;;;3.50;;
12385;SDS011;6257;57.634;18.310;2023-08-24T06:02:15;6.20;;;3.60;;
12385;SDS011;6257;57.634;18.310;2023-08-24T06:04:42;5.23;;;3.30;;
12385;SDS011;6257;57.634;18.310;2023-08-24T06:07:09;5.47;;;3.07;;
12385;SDS011;6257;57.634;18.310;2023-08-24T06:09:37;5.67;;;3.43;;
12385;SDS011;6257;57.634;18.310;2023-08-24T06:12:04;5.43;;;3.47;;
12385;SDS011;6257;57.634;18.310;2023-08-24T06:14:32;5.77;;;3.50;;
12385;SDS011;6257;57.634;18.310;2023-08-24T06:16:59;5.23;;;3.13;;
12385;SDS011;6257;57.634;18.310;2023-08-24T06:19:28;7.40;;;3.47;;
12385;SDS011;6257;57.634;18.310;2023-08-24T06:21:55;5.20;;;3.20;;
12385;SDS011;6257;57.634;18.310;2023-08-24T06:24:22;5.23;;;3.40;;
12385;SDS011;6257;57.634;18.310;2023-08-24T06:26:49;5.80;;;3.10;;
12385;SDS011;6257;57.634;18.310;2023-08-24T06:29:16;5.80;;;3.10;;
12385;SDS011;6257;57.634;18.310;2023-08-24T06:31:43;8.30;;;3.13;;
12385;SDS011;6257;57.634;18.310;2023-08-24T06:34:10;5.97;;;3.40;;
12385;SDS011;6257;57.634;18.310;2023-08-24T06:36:39;7.37;;;3.37;;
12385;SDS011;6257;57.634;18.310;2023-08-24T06:39:06;4.80;;;3.10;;
12385;SDS011;6257;57.634;18.310;2023-08-24T06:48:47;7.07;;;3.00;;
12385;SDS011;6257;57.634;18.310;2023-08-24T06:55:00;3.30;;;2.80;;
12385;SDS011;6257;57.634;18.310;2023-08-24T07:06:43;5.53;;;2.60;;
12385;SDS011;6257;57.634;18.310;2023-08-24T07:09:10;4.97;;;2.57;;
12385;SDS011;6257;57.634;18.310;2023-08-24T07:11:39;7.07;;;2.87;;
12385;SDS011;6257;57.634;18.310;2023-08-24T07:14:06;3.10;;;2.20;;
12385;SDS011;6257;57.634;18.310;2023-08-24T07:16:33;4.97;;;2.60;;
12385;SDS011;6257;57.634;18.310;2023-08-24T07:19:00;3.80;;;2.13;;
12385;SDS011;6257;57.634;18.310;2023-08-24T07:21:27;4.77;;;2.40;;
12385;SDS011;6257;57.634;18.310;2023-08-24T07:23:55;3.83;;;2.43;;
12385;SDS011;6257;57.634;18.310;2023-08-24T07:26:23;3.80;;;2.40;;
12385;SDS011;6257;57.634;18.310;2023-08-24T07:28:52;4.47;;;2.67;;
12385;SDS011;6257;57.634;18.310;2023-08-24T07:31:19;6.43;;;2.50;;
12385;SDS011;6257;57.634;18.310;2023-08-24T07:33:47;5.43;;;2.47;;
12385;SDS011;6257;57.634;18.310;2023-08-24T07:36:15;5.40;;;2.63;;
12385;SDS011;6257;57.634;18.310;2023-08-24T07:38:44;3.20;;;2.20;;
12385;SDS011;6257;57.634;18.310;2023-08-24T07:41:12;3.40;;;2.00;;
12385;SDS011;6257;57.634;18.310;2023-08-24T07:43:39;4.03;;;2.40;;
12385;SDS011;6257;57.634;18.310;2023-08-24T07:46:08;2.63;;;2.13;;
12385;SDS011;6257;57.634;18.310;2023-08-24T07:48:35;3.13;;;2.03;;
12385;SDS011;6257;57.634;18.310;2023-08-24T07:51:02;4.13;;;2.20;;
12385;SDS011;6257;57.634;18.310;2023-08-24T07:53:30;4.17;;;2.20;;
12385;SDS011;6257;57.634;18.310;2023-08-24T07:55:58;4.27;;;1.93;;
12385;SDS011;6257;57.634;18.310;2023-08-24T07:58:26;3.20;;;2.00;;
12385;SDS011;6257;57.634;18.310;2023-08-24T08:00:53;7.23;;;1.70;;
12385;SDS011;6257;57.634;18.310;2023-08-24T08:03:22;5.17;;;1.50;;
12385;SDS011;6257;57.634;18.310;2023-08-24T08:05:49;4.30;;;1.50;;
12385;SDS011;6257;57.634;18.310;2023-08-24T08:08:16;2.70;;;1.90;;
12385;SDS011;6257;57.634;18.310;2023-08-24T08:10:44;2.30;;;1.53;;
12385;SDS011;6257;57.634;18.310;2023-08-24T08:13:11;5.07;;;1.80;;
12385;SDS011;6257;57.634;18.310;2023-08-24T08:15:38;4.03;;;1.73;;
12385;SDS011;6257;57.634;18.310;2023-08-24T08:18:05;3.20;;;1.90;;
12385;SDS011;6257;57.634;18.310;2023-08-24T08:20:34;4.40;;;1.80;;
12385;SDS011;6257;57.634;18.310;2023-08-24T08:23:01;3.93;;;1.80;;
12385;SDS011;6257;57.634;18.310;2023-08-24T08:25:28;4.73;;;1.70;;
12385;SDS011;6257;57.634;18.310;2023-08-24T08:27:55;2.17;;;1.47;;
12385;SDS011;6257;57.634;18.310;2023-08-24T08:30:22;3.17;;;1.60;;
12385;SDS011;6257;57.634;18.310;2023-08-24T08:32:49;5.17;;;2.13;;
12385;SDS011;6257;57.634;18.310;2023-08-24T08:35:17;4.33;;;2.30;;
12385;SDS011;6257;57.634;18.310;2023-08-24T08:37:46;3.87;;;1.80;;
12385;SDS011;6257;57.634;18.310;2023-08-24T08:40:14;3.00;;;1.67;;
12385;SDS011;6257;57.634;18.310;2023-08-24T08:42:43;4.20;;;2.37;;
12385;SDS011;6257;57.634;18.310;2023-08-24T08:45:11;3.23;;;1.40;;
12385;SDS011;6257;57.634;18.310;2023-08-24T08:47:38;5.27;;;1.93;;
12385;SDS011;6257;57.634;18.310;2023-08-24T08:50:07;2.60;;;1.47;;
12385;SDS011;6257;57.634;18.310;2023-08-24T08:52:35;2.20;;;1.30;;
12385;SDS011;6257;57.634;18.310;2023-08-24T08:55:04;2.77;;;1.50;;
12385;SDS011;6257;57.634;18.310;2023-08-24T08:57:34;3.23;;;1.50;;
12385;SDS011;6257;57.634;18.310;2023-08-24T09:00:02;3.77;;;1.80;;
12385;SDS011;6257;57.634;18.310;2023-08-24T09:02:30;5.43;;;2.20;;
12385;SDS011;6257;57.634;18.310;2023-08-24T09:04:59;4.80;;;1.80;;
12385;SDS011;6257;57.634;18.310;2023-08-24T09:07:26;3.23;;;1.80;;
12385;SDS011;6257;57.634;18.310;2023-08-24T09:09:53;2.83;;;1.83;;
12385;SDS011;6257;57.634;18.310;2023-08-24T09:12:22;3.87;;;2.23;;
12385;SDS011;6257;57.634;18.310;2023-08-24T09:14:49;2.83;;;1.60;;
12385;SDS011;6257;57.634;18.310;2023-08-24T09:17:20;3.20;;;2.00;;
12385;SDS011;6257;57.634;18.310;2023-08-24T09:19:47;3.00;;;1.83;;
12385;SDS011;6257;57.634;18.310;2023-08-24T09:22:17;2.97;;;1.50;;
12385;SDS011;6257;57.634;18.310;2023-08-24T09:24:44;4.03;;;1.70;;
12385;SDS011;6257;57.634;18.310;2023-08-24T09:27:15;3.93;;;1.90;;
12385;SDS011;6257;57.634;18.310;2023-08-24T09:29:46;4.77;;;2.00;;
12385;SDS011;6257;57.634;18.310;2023-08-24T09:32:15;2.67;;;1.67;;
12385;SDS011;6257;57.634;18.310;2023-08-24T09:34:42;2.27;;;1.70;;
12385;SDS011;6257;57.634;18.310;2023-08-24T09:37:13;3.90;;;1.87;;
12385;SDS011;6257;57.634;18.310;2023-08-24T09:39:40;2.70;;;1.70;;
12385;SDS011;6257;57.634;18.310;2023-08-24T09:42:08;3.83;;;1.93;;
12385;SDS011;6257;57.634;18.310;2023-08-24T09:44:35;2.77;;;2.00;;
12385;SDS011;6257;57.634;18.310;2023-08-24T09:47:09;5.27;;;1.80;;
12385;SDS011;6257;57.634;18.310;2023-08-24T09:49:37;3.47;;;1.60;;
12385;SDS011;6257;57.634;18.310;2023-08-24T09:52:06;4.33;;;1.60;;
12385;SDS011;6257;57.634;18.310;2023-08-24T09:54:35;3.30;;;1.70;;
12385;SDS011;6257;57.634;18.310;2023-08-24T09:57:04;5.87;;;1.60;;
12385;SDS011;6257;57.634;18.310;2023-08-24T09:59:34;2.00;;;1.47;;
12385;SDS011;6257;57.634;18.310;2023-08-24T10:02:03;1.80;;;1.50;;
12385;SDS011;6257;57.634;18.310;2023-08-24T10:04:39;2.07;;;1.30;;
12385;SDS011;6257;57.634;18.310;2023-08-24T10:07:08;4.27;;;1.40;;
12385;SDS011;6257;57.634;18.310;2023-08-24T10:09:43;2.93;;;1.60;;
12385;SDS011;6257;57.634;18.310;2023-08-24T10:12:12;2.50;;;1.30;;
12385;SDS011;6257;57.634;18.310;2023-08-24T10:14:41;5.00;;;1.53;;
12385;SDS011;6257;57.634;18.310;2023-08-24T10:17:14;3.57;;;1.40;;
12385;SDS011;6257;57.634;18.310;2023-08-24T10:19:44;2.80;;;1.60;;
12385;SDS011;6257;57.634;18.310;2023-08-24T10:22:12;3.67;;;1.63;;
12385;SDS011;6257;57.634;18.310;2023-08-24T10:24:40;3.20;;;1.50;;
12385;SDS011;6257;57.634;18.310;2023-08-24T10:27:10;3.57;;;1.60;;
12385;SDS011;6257;57.634;18.310;2023-08-24T10:29:39;2.77;;;1.30;;
12385;SDS011;6257;57.634;18.310;2023-08-24T10:32:06;4.30;;;1.30;;
12385;SDS011;6257;57.634;18.310;2023-08-24T10:34:34;2.10;;;1.27;;
12385;SDS011;6257;57.634;18.310;2023-08-24T10:37:08;1.70;;;1.50;;
12385;SDS011;6257;57.634;18.310;2023-08-24T10:39:36;3.57;;;1.70;;
12385;SDS011;6257;57.634;18.310;2023-08-24T10:42:04;2.53;;;1.20;;
12385;SDS011;6257;57.634;18.310;2023-08-24T10:44:36;3.40;;;1.50;;
12385;SDS011;6257;57.634;18.310;2023-08-24T10:47:08;2.83;;;1.43;;
12385;SDS011;6257;57.634;18.310;2023-08-24T10:49:39;2.60;;;1.40;;
12385;SDS011;6257;57.634;18.310;2023-08-24T10:52:21;2.23;;;1.40;;
12385;SDS011;6257;57.634;18.310;2023-08-24T10:54:48;3.27;;;1.73;;
12385;SDS011;6257;57.634;18.310;2023-08-24T10:57:21;3.33;;;1.37;;
12385;SDS011;6257;57.634;18.310;2023-08-24T10:59:59;3.17;;;1.30;;
12385;SDS011;6257;57.634;18.310;2023-08-24T11:02:30;3.23;;;1.50;;
12385;SDS011;6257;57.634;18.310;2023-08-24T11:05:07;3.43;;;1.83;;
12385;SDS011;6257;57.634;18.310;2023-08-24T11:07:49;2.53;;;1.43;;
12385;SDS011;6257;57.634;18.310;2023-08-24T11:10:17;2.77;;;1.70;;
12385;SDS011;6257;57.634;18.310;2023-08-24T11:15:31;3.73;;;1.40;;
12385;SDS011;6257;57.634;18.310;2023-08-24T11:18:15;2.63;;;1.43;;
12385;SDS011;6257;57.634;18.310;2023-08-24T11:20:51;2.27;;;1.43;;
12385;SDS011;6257;57.634;18.310;2023-08-24T11:23:21;3.17;;;1.47;;
12385;SDS011;6257;57.634;18.310;2023-08-24T11:25:50;2.67;;;1.40;;
12385;SDS011;6257;57.634;18.310;2023-08-24T11:28:21;3.97;;;1.60;;
12385;SDS011;6257;57.634;18.310;2023-08-24T11:30:49;3.23;;;1.50;;
12385;SDS011;6257;57.634;18.310;2023-08-24T11:33:17;3.10;;;1.40;;
12385;SDS011;6257;57.634;18.310;2023-08-24T11:35:54;1.93;;;1.50;;
12385;SDS011;6257;57.634;18.310;2023-08-24T11:38:23;3.43;;;1.50;;
12385;SDS011;6257;57.634;18.310;2023-08-24T11:40:50;7.10;;;1.83;;
12385;SDS011;6257;57.634;18.310;2023-08-24T11:43:22;3.37;;;1.73;;
12385;SDS011;6257;57.634;18.310;2023-08-24T11:45:51;1.80;;;1.40;;
12385;SDS011;6257;57.634;18.310;2023-08-24T11:48:23;3.07;;;1.57;;
12385;SDS011;6257;57.634;18.310;2023-08-24T11:50:51;3.77;;;2.00;;
12385;SDS011;6257;57.634;18.310;2023-08-24T11:53:19;3.07;;;1.70;;
12385;SDS011;6257;57.634;18.310;2023-08-24T11:55:48;3.77;;;2.13;;
12385;SDS011;6257;57.634;18.310;2023-08-24T11:58:15;2.53;;;1.47;;
12385;SDS011;6257;57.634;18.310;2023-08-24T12:00:42;2.73;;;1.60;;
12385;SDS011;6257;57.634;18.310;2023-08-24T12:03:09;2.50;;;1.60;;
12385;SDS011;6257;57.634;18.310;2023-08-24T12:05:37;2.37;;;1.50;;
12385;SDS011;6257;57.634;18.310;2023-08-24T12:08:04;3.67;;;1.90;;
12385;SDS011;6257;57.634;18.310;2023-08-24T12:10:32;3.77;;;1.70;;
12385;SDS011;6257;57.634;18.310;2023-08-24T12:13:02;2.27;;;1.70;;
12385;SDS011;6257;57.634;18.310;2023-08-24T12:15:31;3.67;;;1.50;;
12385;SDS011;6257;57.634;18.310;2023-08-24T12:18:06;4.00;;;1.77;;
12385;SDS011;6257;57.634;18.310;2023-08-24T12:20:34;4.53;;;1.83;;
12385;SDS011;6257;57.634;18.310;2023-08-24T12:23:01;3.43;;;1.90;;
12385;SDS011;6257;57.634;18.310;2023-08-24T12:25:29;3.77;;;1.53;;
12385;SDS011;6257;57.634;18.310;2023-08-24T12:28:09;3.77;;;2.00;;
12385;SDS011;6257;57.634;18.310;2023-08-24T12:30:44;3.47;;;1.70;;
12385;SDS011;6257;57.634;18.310;2023-08-24T12:33:21;4.93;;;2.20;;
12385;SDS011;6257;57.634;18.310;2023-08-24T12:35:49;2.30;;;1.80;;
12385;SDS011;6257;57.634;18.310;2023-08-24T12:38:16;3.00;;;1.93;;
12385;SDS011;6257;57.634;18.310;2023-08-24T12:40:43;4.97;;;1.90;;
12385;SDS011;6257;57.634;18.310;2023-08-24T12:43:12;2.27;;;1.60;;
12385;SDS011;6257;57.634;18.310;2023-08-24T12:45:40;3.17;;;1.57;;
12385;SDS011;6257;57.634;18.310;2023-08-24T12:48:07;1.90;;;1.50;;
12385;SDS011;6257;57.634;18.310;2023-08-24T12:50:35;4.30;;;1.67;;
12385;SDS011;6257;57.634;18.310;2023-08-24T12:53:04;4.33;;;2.10;;
12385;SDS011;6257;57.634;18.310;2023-08-24T12:55:32;3.40;;;1.90;;
12385;SDS011;6257;57.634;18.310;2023-08-24T12:58:01;2.57;;;1.60;;
12385;SDS011;6257;57.634;18.310;2023-08-24T13:00:30;2.27;;;1.60;;
12385;SDS011;6257;57.634;18.310;2023-08-24T13:02:57;3.90;;;1.60;;
12385;SDS011;6257;57.634;18.310;2023-08-24T13:05:24;3.20;;;1.40;;
12385;SDS011;6257;57.634;18.310;2023-08-24T13:07:53;4.03;;;1.70;;
12385;SDS011;6257;57.634;18.310;2023-08-24T13:10:21;3.27;;;1.80;;
12385;SDS011;6257;57.634;18.310;2023-08-24T13:12:48;4.73;;;1.50;;
12385;SDS011;6257;57.634;18.310;2023-08-24T13:15:15;3.00;;;1.60;;
12385;SDS011;6257;57.634;18.310;2023-08-24T13:17:44;3.23;;;1.93;;
12385;SDS011;6257;57.634;18.310;2023-08-24T13:20:11;3.60;;;1.80;;
12385;SDS011;6257;57.634;18.310;2023-08-24T13:22:38;2.23;;;1.57;;
12385;SDS011;6257;57.634;18.310;2023-08-24T13:25:06;3.23;;;1.93;;
12385;SDS011;6257;57.634;18.310;2023-08-24T13:27:34;2.87;;;1.90;;
12385;SDS011;6257;57.634;18.310;2023-08-24T13:30:01;3.67;;;2.10;;
12385;SDS011;6257;57.634;18.310;2023-08-24T13:32:29;2.47;;;2.00;;
12385;SDS011;6257;57.634;18.310;2023-08-24T13:34:58;3.73;;;1.90;;
12385;SDS011;6257;57.634;18.310;2023-08-24T13:37:25;2.60;;;1.77;;
12385;SDS011;6257;57.634;18.310;2023-08-24T13:39:52;2.87;;;2.00;;
12385;SDS011;6257;57.634;18.310;2023-08-24T13:42:19;4.43;;;1.90;;
12385;SDS011;6257;57.634;18.310;2023-08-24T13:44:46;2.57;;;2.03;;
12385;SDS011;6257;57.634;18.310;2023-08-24T13:47:15;4.67;;;2.13;;
12385;SDS011;6257;57.634;18.310;2023-08-24T13:49:42;3.50;;;2.13;;
12385;SDS011;6257;57.634;18.310;2023-08-24T13:52:11;3.20;;;2.03;;
12385;SDS011;6257;57.634;18.310;2023-08-24T13:54:38;3.10;;;1.70;;
12385;SDS011;6257;57.634;18.310;2023-08-24T13:57:05;4.67;;;1.80;;
12385;SDS011;6257;57.634;18.310;2023-08-24T13:59:32;3.60;;;2.13;;
12385;SDS011;6257;57.634;18.310;2023-08-24T14:01:59;3.77;;;1.90;;
12385;SDS011;6257;57.634;18.310;2023-08-24T14:04:26;5.20;;;1.87;;
12385;SDS011;6257;57.634;18.310;2023-08-24T14:06:53;3.53;;;1.90;;
12385;SDS011;6257;57.634;18.310;2023-08-24T14:09:22;2.27;;;1.80;;
12385;SDS011;6257;57.634;18.310;2023-08-24T14:11:49;3.40;;;1.60;;
12385;SDS011;6257;57.634;18.310;2023-08-24T14:14:16;4.17;;;1.90;;
12385;SDS011;6257;57.634;18.310;2023-08-24T14:16:43;4.63;;;2.30;;
12385;SDS011;6257;57.634;18.310;2023-08-24T14:19:11;2.80;;;1.63;;
12385;SDS011;6257;57.634;18.310;2023-08-24T14:21:38;3.47;;;1.90;;
12385;SDS011;6257;57.634;18.310;2023-08-24T14:24:05;3.33;;;1.70;;
12385;SDS011;6257;57.634;18.310;2023-08-24T14:26:34;2.73;;;1.53;;
12385;SDS011;6257;57.634;18.310;2023-08-24T14:29:37;3.20;;;1.63;;
12385;SDS011;6257;57.634;18.310;2023-08-24T14:32:05;2.90;;;1.50;;
12385;SDS011;6257;57.634;18.310;2023-08-24T14:38:27;2.17;;;1.83;;
12385;SDS011;6257;57.634;18.310;2023-08-24T14:57:49;3.33;;;1.90;;
12385;SDS011;6257;57.634;18.310;2023-08-24T15:00:39;4.73;;;2.30;;
12385;SDS011;6257;57.634;18.310;2023-08-24T15:06:42;5.53;;;1.90;;
12385;SDS011;6257;57.634;18.310;2023-08-24T15:09:09;3.37;;;1.77;;
12385;SDS011;6257;57.634;18.310;2023-08-24T15:11:36;2.63;;;1.70;;
12385;SDS011;6257;57.634;18.310;2023-08-24T15:14:04;5.43;;;1.90;;
12385;SDS011;6257;57.634;18.310;2023-08-24T15:16:31;2.77;;;1.50;;
12385;SDS011;6257;57.634;18.310;2023-08-24T15:18:58;2.33;;;1.60;;
12385;SDS011;6257;57.634;18.310;2023-08-24T15:21:26;4.30;;;1.80;;
12385;SDS011;6257;57.634;18.310;2023-08-24T15:23:53;2.97;;;1.73;;
12385;SDS011;6257;57.634;18.310;2023-08-24T15:26:21;3.40;;;1.70;;
12385;SDS011;6257;57.634;18.310;2023-08-24T15:29:08;3.87;;;2.07;;
12385;SDS011;6257;57.634;18.310;2023-08-24T15:31:40;5.33;;;2.23;;
12385;SDS011;6257;57.634;18.310;2023-08-24T15:34:07;3.60;;;1.67;;
12385;SDS011;6257;57.634;18.310;2023-08-24T15:36:34;3.43;;;1.80;;
12385;SDS011;6257;57.634;18.310;2023-08-24T15:39:02;3.60;;;2.10;;
12385;SDS011;6257;57.634;18.310;2023-08-24T15:41:29;4.43;;;2.10;;
12385;SDS011;6257;57.634;18.310;2023-08-24T15:43:56;3.77;;;2.20;;